createdAt,value
2023-05-24T00:01:27.315Z,19.01
2023-05-24T00:04:02.404Z,19.03
2023-05-24T00:06:36.122Z,19.06
2023-05-24T00:09:07.102Z,19.20
2023-05-24T00:11:37.350Z,19.25
2023-05-24T00:14:08.067Z,19.40
2023-05-24T00:16:38.711Z,19.25
2023-05-24T00:19:12.438Z,18.97
2023-05-24T00:21:43.202Z,18.88
2023-05-24T00:24:14.219Z,18.91
2023-05-24T00:26:44.857Z,18.84
2023-05-24T00:29:16.315Z,18.73
2023-05-24T00:31:48.286Z,18.61
2023-05-24T00:34:18.941Z,18.57
2023-05-24T00:36:49.224Z,18.49
2023-05-24T00:39:20.510Z,18.47
2023-05-24T00:41:52.656Z,18.40
2023-05-24T00:44:25.368Z,18.36
2023-05-24T00:46:57.681Z,18.42
2023-05-24T00:49:29.515Z,18.42
2023-05-24T00:52:01.370Z,18.42
2023-05-24T00:54:32.648Z,18.54
2023-05-24T00:57:03.988Z,18.59
2023-05-24T00:59:35.701Z,18.55
2023-05-24T01:02:08.299Z,18.75
2023-05-24T01:04:39.610Z,18.73
2023-05-24T01:07:31.774Z,18.48
2023-05-24T01:10:09.734Z,18.32
2023-05-24T01:13:22.180Z,18.14
2023-05-24T01:15:55.825Z,17.97
2023-05-24T01:18:33.467Z,17.79
2023-05-24T01:21:22.543Z,17.67
2023-05-24T01:23:55.468Z,17.56
2023-05-24T01:26:44.098Z,17.56
2023-05-24T01:29:15.428Z,17.69
2023-05-24T01:31:46.652Z,17.77
2023-05-24T01:34:17.036Z,17.85
2023-05-24T01:36:49.309Z,17.89
2023-05-24T01:39:19.873Z,17.97
2023-05-24T01:42:05.726Z,17.93
2023-05-24T01:44:52.560Z,17.80
2023-05-24T01:47:51.947Z,17.76
2023-05-24T01:50:36.203Z,17.74
2023-05-24T01:53:10.670Z,17.69
2023-05-24T01:55:40.900Z,17.73
2023-05-24T01:58:12.835Z,17.78
2023-05-24T02:00:44.941Z,17.76
2023-05-24T02:03:19.731Z,17.72
2023-05-24T02:05:50.204Z,17.76
2023-05-24T02:08:21.287Z,17.83
2023-05-24T02:10:51.941Z,17.76
2023-05-24T02:13:22.626Z,17.71
2023-05-24T02:15:54.888Z,17.62
2023-05-24T02:18:25.482Z,17.61
2023-05-24T02:20:55.399Z,17.71
2023-05-24T02:23:25.742Z,17.63
2023-05-24T02:25:57.009Z,17.64
2023-05-24T02:28:27.377Z,17.63
2023-05-24T02:30:57.373Z,17.61
2023-05-24T02:33:28.027Z,17.63
2023-05-24T02:35:58.471Z,17.63
2023-05-24T02:38:28.857Z,17.57
2023-05-24T02:40:58.612Z,17.60
2023-05-24T02:43:29.220Z,17.58
2023-05-24T02:45:59.177Z,17.73
2023-05-24T02:48:29.522Z,17.73
2023-05-24T02:50:59.498Z,17.59
2023-05-24T02:53:29.873Z,17.61
2023-05-24T02:56:00.655Z,17.56
2023-05-24T02:58:33.713Z,17.28
2023-05-24T03:01:03.719Z,17.13
2023-05-24T03:03:34.379Z,17.07
2023-05-24T03:06:04.701Z,17.15
2023-05-24T03:08:38.537Z,17.23
2023-05-24T03:11:08.867Z,17.31
2023-05-24T03:13:39.436Z,17.38
2023-05-24T03:16:09.681Z,17.36
2023-05-24T03:18:40.050Z,17.38
2023-05-24T03:21:09.991Z,17.43
2023-05-24T03:23:40.944Z,17.42
2023-05-24T03:26:10.893Z,17.38
2023-05-24T03:28:44.462Z,17.26
2023-05-24T03:31:14.565Z,17.21
2023-05-24T03:33:45.154Z,17.22
2023-05-24T03:36:15.203Z,17.24
2023-05-24T03:38:46.107Z,17.36
2023-05-24T03:41:16.097Z,17.37
2023-05-24T03:43:46.592Z,17.22
2023-05-24T03:46:19.574Z,17.11
2023-05-24T03:48:50.981Z,16.99
2023-05-24T03:51:21.320Z,17.02
2023-05-24T03:53:51.770Z,16.91
2023-05-24T03:56:21.752Z,16.89
2023-05-24T03:58:53.469Z,16.89
2023-05-24T04:01:33.176Z,16.78
2023-05-24T04:04:07.674Z,16.76
2023-05-24T04:06:39.269Z,16.76
2023-05-24T04:09:11.128Z,16.74
2023-05-24T04:11:41.324Z,16.73
2023-05-24T04:14:14.419Z,16.74
2023-05-24T04:16:46.171Z,16.71
2023-05-24T04:19:16.630Z,16.61
2023-05-24T04:21:47.196Z,16.61
2023-05-24T04:24:17.556Z,16.63
2023-05-24T04:26:48.896Z,16.56
2023-05-24T04:29:20.034Z,16.49
2023-05-24T04:31:50.459Z,16.45
2023-05-24T04:34:23.552Z,16.41
2023-05-24T04:36:54.263Z,16.36
2023-05-24T04:39:24.673Z,16.35
2023-05-24T04:41:56.277Z,16.38
2023-05-24T04:44:27.061Z,16.41
2023-05-24T04:46:57.081Z,16.38
2023-05-24T04:49:27.451Z,16.34
2023-05-24T04:51:58.401Z,16.30
2023-05-24T04:54:28.753Z,16.21
2023-05-24T04:56:58.716Z,16.16
2023-05-24T04:59:29.044Z,16.11
2023-05-24T05:01:59.238Z,16.03
2023-05-24T05:04:29.969Z,16.08
2023-05-24T05:06:59.997Z,16.06
2023-05-24T05:09:31.391Z,16.05
2023-05-24T05:12:01.921Z,16.12
2023-05-24T05:14:32.384Z,16.08
2023-05-24T05:17:02.124Z,16.11
2023-05-24T05:19:32.597Z,16.22
2023-05-24T05:22:02.719Z,16.38
2023-05-24T05:24:33.257Z,16.43
2023-05-24T05:27:03.196Z,16.38
2023-05-24T05:29:33.520Z,16.49
2023-05-24T05:32:03.344Z,16.67
2023-05-24T05:34:33.675Z,16.73
2023-05-24T05:37:03.830Z,16.87
2023-05-24T05:39:34.434Z,16.88
2023-05-24T05:42:04.459Z,16.84
2023-05-24T05:44:35.060Z,16.85
2023-05-24T05:47:06.996Z,16.79
2023-05-24T05:49:37.715Z,16.68
2023-05-24T05:52:07.881Z,16.59
2023-05-24T05:54:38.231Z,16.40
2023-05-24T05:57:11.663Z,16.36
2023-05-24T05:59:42.038Z,16.30
2023-05-24T06:02:13.929Z,16.15
2023-05-24T06:04:44.500Z,16.08
2023-05-24T06:07:14.437Z,16.13
2023-05-24T06:09:44.204Z,16.08
2023-05-24T06:12:14.481Z,16.06
2023-05-24T06:14:44.489Z,16.16
2023-05-24T06:17:14.802Z,16.28
2023-05-24T06:19:47.318Z,16.62
2023-05-24T06:22:17.665Z,16.67
2023-05-24T06:24:48.086Z,16.72
2023-05-24T06:27:18.452Z,16.66
2023-05-24T06:29:48.415Z,16.55
2023-05-24T06:32:18.925Z,16.41
2023-05-24T06:34:48.969Z,16.14
2023-05-24T06:37:19.291Z,16.00
2023-05-24T06:39:49.300Z,15.81
2023-05-24T06:42:19.666Z,15.69
2023-05-24T06:44:49.664Z,15.73
2023-05-24T06:47:20.484Z,15.80
2023-05-24T06:49:51.110Z,15.91
2023-05-24T06:52:21.384Z,16.14
2023-05-24T06:54:51.805Z,16.17
2023-05-24T06:57:22.220Z,16.27
2023-05-24T06:59:52.289Z,16.36
2023-05-24T07:02:27.766Z,16.26
2023-05-24T07:04:58.488Z,16.25
2023-05-24T07:07:28.827Z,16.14
2023-05-24T07:09:58.803Z,16.07
2023-05-24T07:12:28.596Z,16.09
2023-05-24T07:14:58.961Z,16.10
2023-05-24T07:17:28.925Z,16.05
2023-05-24T07:19:59.455Z,16.04
2023-05-24T07:22:30.902Z,16.14
2023-05-24T07:25:01.278Z,16.05
2023-05-24T07:27:31.175Z,16.29
2023-05-24T07:30:01.508Z,16.19
2023-05-24T07:32:31.906Z,16.20
2023-05-24T07:35:02.322Z,16.11
2023-05-24T07:37:32.296Z,16.10
2023-05-24T07:40:03.203Z,16.09
2023-05-24T07:42:33.425Z,16.06
2023-05-24T07:45:04.534Z,16.06
2023-05-24T07:47:34.734Z,16.04
2023-05-24T07:50:05.723Z,16.04
2023-05-24T07:52:36.360Z,16.05
2023-05-24T07:55:07.808Z,16.02
2023-05-24T07:57:37.757Z,15.99
2023-05-24T08:00:15.491Z,15.87
2023-05-24T08:02:47.420Z,15.84
2023-05-24T08:05:18.650Z,15.86
2023-05-24T08:07:48.626Z,15.85
2023-05-24T08:10:20.652Z,15.86
2023-05-24T08:12:56.256Z,15.80
2023-05-24T08:15:26.633Z,15.69
2023-05-24T08:17:56.816Z,15.60
2023-05-24T08:20:27.393Z,15.48
2023-05-24T08:22:57.746Z,15.23
2023-05-24T08:25:28.557Z,15.05
2023-05-24T08:27:58.783Z,15.05
2023-05-24T08:30:29.301Z,14.95
2023-05-24T08:32:59.677Z,14.81
2023-05-24T08:35:30.108Z,14.85
2023-05-24T08:38:09.191Z,14.90
2023-05-24T08:40:40.299Z,14.93
2023-05-24T08:43:15.141Z,15.12
2023-05-24T08:45:47.234Z,15.13
2023-05-24T08:48:19.326Z,15.01
2023-05-24T08:50:54.488Z,14.91
2023-05-24T08:53:25.232Z,14.81
2023-05-24T08:55:57.366Z,14.80
2023-05-24T08:58:27.639Z,14.86
2023-05-24T09:00:58.082Z,14.84
2023-05-24T09:03:28.364Z,14.87
2023-05-24T09:05:59.753Z,14.83
2023-05-24T09:08:30.435Z,14.79
2023-05-24T09:11:01.586Z,14.76
2023-05-24T09:13:36.321Z,14.76
2023-05-24T09:16:08.312Z,14.86
2023-05-24T09:18:38.618Z,14.87
2023-05-24T09:21:10.015Z,14.83
2023-05-24T09:23:40.063Z,14.76
2023-05-24T09:26:11.814Z,14.75
2023-05-24T09:28:43.256Z,14.65
2023-05-24T09:31:14.915Z,14.66
2023-05-24T09:33:45.508Z,14.61
2023-05-24T09:36:19.307Z,14.55
2023-05-24T09:38:51.283Z,14.63
2023-05-24T09:41:22.253Z,14.52
2023-05-24T09:43:54.631Z,14.59
2023-05-24T09:46:24.768Z,14.56
2023-05-24T09:49:07.911Z,14.58
2023-05-24T09:51:40.848Z,14.59
2023-05-24T09:54:11.253Z,14.60
2023-05-24T09:56:42.036Z,14.55
2023-05-24T10:02:11.402Z,14.50
2023-05-24T10:04:42.189Z,14.48
2023-05-24T10:07:13.533Z,14.47
2023-05-24T10:09:46.183Z,14.57
2023-05-24T10:12:17.334Z,14.71
2023-05-24T10:14:47.675Z,14.75
2023-05-24T10:17:17.801Z,14.65
2023-05-24T10:19:48.168Z,14.52
2023-05-24T10:22:18.850Z,14.47
2023-05-24T10:24:50.273Z,14.46
2023-05-24T10:27:24.773Z,14.60
2023-05-24T10:30:35.969Z,14.80
2023-05-24T10:33:10.621Z,14.86
2023-05-24T10:35:42.119Z,15.05
2023-05-24T10:38:12.830Z,15.38
2023-05-24T10:40:44.843Z,15.73
2023-05-24T10:43:15.025Z,15.95
2023-05-24T10:45:51.061Z,16.08
2023-05-24T10:48:30.157Z,16.32
2023-05-24T10:51:02.351Z,16.32
2023-05-24T10:53:42.114Z,16.15
2023-05-24T10:56:15.858Z,15.92
2023-05-24T10:58:59.995Z,16.15
2023-05-24T11:01:33.015Z,16.47
2023-05-24T11:04:10.220Z,16.63
2023-05-24T11:07:04.453Z,16.83
2023-05-24T11:09:35.514Z,16.82
2023-05-24T11:12:09.804Z,16.91
2023-05-24T11:14:41.423Z,16.86
2023-05-24T11:17:24.013Z,16.66
2023-05-24T11:19:56.827Z,16.59
2023-05-24T11:22:28.044Z,16.61
2023-05-24T11:25:01.236Z,16.52
2023-05-24T11:27:34.292Z,16.71
2023-05-24T11:30:05.556Z,16.64
2023-05-24T11:32:37.244Z,16.55
2023-05-24T11:35:10.109Z,16.45
2023-05-24T11:40:17.465Z,16.52
2023-05-24T11:42:48.054Z,16.61
2023-05-24T11:45:23.074Z,16.71
2023-05-24T11:47:53.421Z,16.85
2023-05-24T11:50:28.486Z,17.05
2023-05-24T11:53:04.938Z,17.26
2023-05-24T11:55:35.188Z,17.50
2023-05-24T11:58:13.216Z,17.70
2023-05-24T12:00:45.036Z,17.91
2023-05-24T12:03:15.751Z,18.04
2023-05-24T12:05:46.245Z,18.22
2023-05-24T12:08:19.578Z,18.46
2023-05-24T12:10:51.945Z,18.80
2023-05-24T12:13:27.631Z,19.02
2023-05-24T12:15:59.356Z,19.56
2023-05-24T12:18:30.312Z,20.48
2023-05-24T12:21:00.486Z,20.85
2023-05-24T12:23:33.109Z,20.90
2023-05-24T12:26:04.534Z,22.34
2023-05-24T12:28:40.088Z,21.85
2023-05-24T12:31:11.236Z,21.95
2023-05-24T12:33:41.625Z,22.27
2023-05-24T12:36:12.795Z,22.49
2023-05-24T12:38:43.225Z,22.98
2023-05-24T12:41:14.254Z,23.02
2023-05-24T12:43:45.533Z,24.01
2023-05-24T12:46:15.581Z,24.12
2023-05-24T12:48:46.551Z,24.26
2023-05-24T12:51:16.669Z,24.05
2023-05-24T12:53:47.569Z,24.41
2023-05-24T12:56:17.818Z,24.49
2023-05-24T12:58:48.523Z,25.17
2023-05-24T13:01:19.334Z,24.81
2023-05-24T13:03:49.720Z,25.61
2023-05-24T13:06:23.881Z,25.33
2023-05-24T13:08:54.736Z,26.05
2023-05-24T13:11:26.415Z,26.73
2023-05-24T13:16:40.664Z,27.61
2023-05-24T13:19:11.477Z,27.88
2023-05-24T13:21:41.864Z,28.51
2023-05-24T13:24:12.298Z,28.41
2023-05-24T13:26:42.737Z,28.68
2023-05-24T13:31:46.367Z,29.41
2023-05-24T13:34:16.915Z,29.83
2023-05-24T13:36:47.535Z,29.03
2023-05-24T13:39:17.955Z,29.55
2023-05-24T13:41:48.358Z,29.02
2023-05-24T13:44:19.073Z,30.99
2023-05-24T13:46:49.247Z,31.25
2023-05-24T13:49:19.896Z,30.88
2023-05-24T13:51:50.523Z,31.16
2023-05-24T13:54:20.891Z,31.58
2023-05-24T13:56:51.151Z,30.52
2023-05-24T13:59:21.476Z,31.21
2023-05-24T14:01:51.734Z,31.43
2023-05-24T14:04:22.130Z,31.54
2023-05-24T14:06:54.164Z,31.57
2023-05-24T14:09:24.900Z,32.17
2023-05-24T14:11:55.348Z,31.69
2023-05-24T14:16:58.602Z,32.44
2023-05-24T14:19:29.077Z,32.85
2023-05-24T14:21:59.088Z,32.47
2023-05-24T14:24:30.940Z,32.78
2023-05-24T14:27:00.902Z,33.52
2023-05-24T14:29:30.678Z,33.07
2023-05-24T14:32:01.141Z,34.00
2023-05-24T14:34:31.034Z,33.62
2023-05-24T14:37:00.837Z,33.57
2023-05-24T14:39:31.519Z,32.89
2023-05-24T14:42:02.290Z,34.05
2023-05-24T14:44:32.774Z,34.02
2023-05-24T14:47:02.797Z,34.11
2023-05-24T14:49:33.114Z,33.72
2023-05-24T14:52:03.090Z,34.58
2023-05-24T14:54:33.415Z,34.18
2023-05-24T14:57:03.605Z,35.03
2023-05-24T14:59:35.966Z,35.27
2023-05-24T15:04:49.210Z,35.19
2023-05-24T15:07:19.457Z,35.26
2023-05-24T15:09:49.905Z,34.79
2023-05-24T15:12:19.886Z,35.50
2023-05-24T15:17:33.348Z,35.89
2023-05-24T15:20:04.033Z,35.52
2023-05-24T15:22:35.139Z,36.54
2023-05-24T15:25:06.087Z,35.59
2023-05-24T15:27:36.037Z,36.38
2023-05-24T15:30:06.204Z,36.87
2023-05-24T15:32:36.585Z,37.03
2023-05-24T15:35:07.923Z,36.78
2023-05-24T15:37:38.223Z,37.37
2023-05-24T15:40:10.817Z,37.94
2023-05-24T15:42:41.310Z,38.05
2023-05-24T15:45:12.229Z,37.97
2023-05-24T15:47:42.623Z,37.22
2023-05-24T15:50:12.918Z,36.99
2023-05-24T15:52:43.346Z,38.47
2023-05-24T15:55:13.333Z,38.67
2023-05-24T15:57:43.824Z,38.72
2023-05-24T16:00:14.508Z,38.77
2023-05-24T16:02:44.658Z,38.77
2023-05-24T16:05:14.704Z,38.33
2023-05-24T16:07:45.141Z,38.07
2023-05-24T16:10:15.282Z,38.09
2023-05-24T16:12:45.651Z,37.82
2023-05-24T16:15:15.695Z,37.77
2023-05-24T16:17:46.105Z,37.77
2023-05-24T16:20:16.128Z,38.41
2023-05-24T16:22:50.955Z,38.05
2023-05-24T16:25:21.043Z,38.49
2023-05-24T16:27:51.569Z,38.59
2023-05-24T16:30:23.579Z,38.71
2023-05-24T16:32:54.203Z,37.91
2023-05-24T16:35:24.234Z,37.83
2023-05-24T16:40:37.394Z,37.75
2023-05-24T16:43:07.377Z,38.08
2023-05-24T16:45:37.474Z,38.06
2023-05-24T16:48:08.127Z,37.61
2023-05-24T16:50:38.197Z,37.54
2023-05-24T16:53:08.677Z,38.12
2023-05-24T16:55:38.600Z,37.84
2023-05-24T16:58:09.182Z,37.97
2023-05-24T17:00:39.127Z,38.41
2023-05-24T17:03:09.860Z,38.77
2023-05-24T17:05:40.790Z,38.73
2023-05-24T17:08:11.180Z,39.07
2023-05-24T17:10:44.256Z,38.36
2023-05-24T17:13:14.913Z,38.29
2023-05-24T17:15:44.946Z,37.67
2023-05-24T17:18:15.400Z,37.80
2023-05-24T17:20:45.436Z,38.37
2023-05-24T17:23:16.089Z,37.83
2023-05-24T17:25:46.063Z,37.79
2023-05-24T17:28:16.455Z,37.74
2023-05-24T17:30:46.792Z,37.12
2023-05-24T17:36:07.099Z,38.13
2023-05-24T17:38:40.659Z,37.88
2023-05-24T17:41:10.836Z,37.97
2023-05-24T17:43:41.693Z,37.52
2023-05-24T17:46:12.212Z,37.22
2023-05-24T17:48:43.976Z,37.36
2023-05-24T17:51:14.193Z,37.57
2023-05-24T17:53:44.777Z,38.08
2023-05-24T17:56:15.057Z,37.40
2023-05-24T17:58:47.396Z,37.07
2023-05-24T18:01:20.178Z,36.65
2023-05-24T18:03:50.624Z,37.13
2023-05-24T18:06:20.366Z,37.48
2023-05-24T18:08:50.890Z,37.76
2023-05-24T18:11:21.051Z,37.82
2023-05-24T18:13:51.769Z,38.00
2023-05-24T18:16:21.829Z,37.74
2023-05-24T18:18:52.293Z,37.91
2023-05-24T18:21:24.051Z,38.22
2023-05-24T18:23:54.528Z,37.83
2023-05-24T18:26:24.463Z,36.68
2023-05-24T18:28:54.949Z,36.13
2023-05-24T18:31:25.452Z,36.44
2023-05-24T18:33:56.295Z,35.71
2023-05-24T18:36:26.314Z,36.08
2023-05-24T18:38:56.904Z,35.14
2023-05-24T18:41:27.103Z,34.11
2023-05-24T18:43:57.646Z,33.70
2023-05-24T18:46:28.894Z,33.31
2023-05-24T18:49:01.489Z,33.07
2023-05-24T18:51:34.125Z,34.01
2023-05-24T18:54:04.605Z,34.03
2023-05-24T18:56:54.323Z,34.01
2023-05-24T18:59:30.452Z,33.92
2023-05-24T19:02:02.062Z,34.09
2023-05-24T19:04:32.756Z,34.06
2023-05-24T19:07:02.694Z,34.28
2023-05-24T19:09:32.640Z,34.37
2023-05-24T19:12:17.133Z,34.55
2023-05-24T19:14:47.601Z,34.50
2023-05-24T19:17:17.976Z,34.56
2023-05-24T19:19:49.170Z,34.53
2023-05-24T19:22:19.522Z,33.98
2023-05-24T19:25:09.545Z,33.99
2023-05-24T19:27:47.722Z,33.71
2023-05-24T19:30:28.362Z,31.88
2023-05-24T19:32:58.794Z,31.63
2023-05-24T19:35:28.878Z,32.74
2023-05-24T19:37:58.669Z,32.86
2023-05-24T19:40:33.239Z,32.86
2023-05-24T19:43:03.500Z,32.86
2023-05-24T19:45:33.837Z,32.43
2023-05-24T19:48:03.823Z,31.76
2023-05-24T19:50:36.862Z,30.46
2023-05-24T19:53:07.277Z,29.30
2023-05-24T19:55:37.754Z,28.41
2023-05-24T19:58:07.798Z,28.05
2023-05-24T20:00:38.262Z,27.62
2023-05-24T20:03:08.324Z,27.20
2023-05-24T20:05:38.793Z,26.79
2023-05-24T20:08:08.760Z,26.37
2023-05-24T20:10:40.184Z,26.09
2023-05-24T20:13:10.273Z,25.77
2023-05-24T20:15:40.832Z,25.50
2023-05-24T20:18:11.069Z,25.28
2023-05-24T20:20:41.010Z,25.11
2023-05-24T20:23:11.496Z,24.94
2023-05-24T20:25:41.553Z,24.77
2023-05-24T20:28:25.666Z,24.58
2023-05-24T20:30:59.865Z,24.38
2023-05-24T20:33:30.288Z,24.29
2023-05-24T20:36:00.409Z,24.21
2023-05-24T20:38:30.695Z,24.14
2023-05-24T20:41:01.155Z,23.99
2023-05-24T20:43:31.633Z,23.87
2023-05-24T20:46:02.784Z,23.73
2023-05-24T20:48:33.462Z,23.56
2023-05-24T20:51:03.563Z,23.43
2023-05-24T20:53:33.999Z,23.20
2023-05-24T20:56:04.620Z,23.06
2023-05-24T20:58:35.018Z,23.00
2023-05-24T21:01:05.234Z,22.90
2023-05-24T21:03:39.750Z,22.76
2023-05-24T21:06:09.820Z,22.40
2023-05-24T21:08:40.294Z,22.14
2023-05-24T21:11:10.286Z,21.99
2023-05-24T21:13:42.268Z,21.79
2023-05-24T21:16:12.238Z,21.68
2023-05-24T21:18:42.526Z,21.56
2023-05-24T21:21:12.905Z,21.41
2023-05-24T21:23:42.856Z,21.31
2023-05-24T21:26:13.539Z,21.15
2023-05-24T21:28:43.590Z,21.11
2023-05-24T21:33:45.265Z,20.97
2023-05-24T21:36:15.705Z,20.91
2023-05-24T21:38:46.158Z,20.90
2023-05-24T21:41:16.603Z,20.88
2023-05-24T21:49:13.228Z,21.09
2023-05-24T21:51:43.017Z,21.14
2023-05-24T21:54:13.415Z,21.16
2023-05-24T21:56:43.415Z,21.22
2023-05-24T21:59:13.800Z,21.24
2023-05-24T22:01:43.919Z,21.19
2023-05-24T22:06:57.295Z,21.17
2023-05-24T22:09:27.134Z,21.10
2023-05-24T22:11:57.575Z,21.11
2023-05-24T22:14:28.194Z,21.05
2023-05-24T22:16:58.738Z,21.05
2023-05-24T22:19:39.564Z,21.04
2023-05-24T22:22:11.132Z,20.96
2023-05-24T22:24:41.985Z,21.01
2023-05-24T22:27:14.767Z,20.92
2023-05-24T22:29:45.325Z,20.32
2023-05-24T22:32:16.134Z,20.37
2023-05-24T22:34:46.183Z,20.12
2023-05-24T22:37:19.323Z,19.93
2023-05-24T22:39:49.316Z,20.19
2023-05-24T22:42:20.281Z,20.28
2023-05-24T22:44:50.316Z,20.20
2023-05-24T22:47:23.212Z,20.18
2023-05-24T22:49:57.659Z,20.12
2023-05-24T22:52:28.477Z,20.09
2023-05-24T22:54:58.509Z,20.00
2023-05-24T22:57:28.559Z,19.97
2023-05-24T22:59:59.059Z,19.93
2023-05-24T23:02:30.492Z,19.93
2023-05-24T23:05:01.478Z,19.98
2023-05-24T23:07:31.629Z,19.96
2023-05-24T23:12:46.329Z,19.82
2023-05-24T23:15:18.043Z,19.76
2023-05-24T23:17:49.191Z,19.64
2023-05-24T23:20:20.270Z,19.64
2023-05-24T23:22:50.803Z,19.65
2023-05-24T23:25:21.338Z,19.59
2023-05-24T23:27:51.353Z,19.58
2023-05-24T23:30:22.406Z,19.58
2023-05-24T23:32:52.531Z,19.62
2023-05-24T23:35:23.348Z,19.62
2023-05-24T23:37:54.873Z,19.57
2023-05-24T23:40:28.267Z,19.44
2023-05-24T23:42:59.265Z,19.24
2023-05-24T23:45:29.700Z,19.13
2023-05-24T23:48:00.342Z,19.10
2023-05-24T23:50:33.161Z,18.99
2023-05-24T23:53:09.785Z,19.09
2023-05-24T23:55:41.883Z,19.09
2023-05-24T23:58:12.008Z,19.09
